Penticton Airport
CYYF : now visible

Airfield :











YOU CAN JOIN US ON...

 
LOGIN :

Register | Disclaimer

   EN    FR    IT 

 









Legend :    VFR   Marginal VFR   IFR   Intensive IFR   Very Intensive IFR
Visi :
Ceiling :
>= 8 km
>= 3000ft
5 to 8 km
1000 to 3000 ft
1500m to 5 km
500 to 1000 ft
800 to 1500m
200 to 500 ft
< 800m
< 200 ft
Symbols :   Thunderstorms  Fog  Heavy snow  Heavy precipitations  Wind > 20 kt






- Airport Elevation : 1129 ft
- IATA code : YYF


CYYF - Penticton

CURRENT METAR :
  • 251900Z 00000KT 15SM SKC 19/08 A3025 RMK SLP246 DENSITY ALT 1500FT

EXPIRED METARs :
  • 251800Z 01004KT 15SM SKC 18/09 A3028 RMK SLP256 DENSITY ALT 1400FT
  • 251700Z 36006KT 330V030 15SM SKC 16/08 A3029 RMK SLP261 DENSITY ALT 1200FT

TAF TAF CYYF
Valid from the 25 at 19:00 until the 26 at 07:00 UTC


251840Z 2519/2607 36005KT P6SM FEW240
BECMG 2519/2521 19010KT
BECMG 2604/2606 01005KT RMK NXT FCST BY 260100Z
CZVR FIR / North America



MET'MAP, your aeronautical weather chart ! - Copyright ORBIFLY December 2007 - Disclaimer

ORBIFLY MET'MAP TEAM :

Programming & Development : Alexandra Zaïnal
Original concept : Baudouin d'Aumeries
Technical & hardware support : Manuel Goepfert
Assistance : Marc-Olivier Méhu




SOURCES & CREDITS :

   NOAA       Earth
Advisory